sensor_id;sensor_type;location;lat;lon;timestamp;P1;durP1;ratioP1;P2;durP2;ratioP2
16308;SDS011;8263;48.880;9.276;2023-06-04T00:02:12;116.18;;;108.43;;
16308;SDS011;8263;48.880;9.276;2023-06-04T00:04:38;115.63;;;107.93;;
16308;SDS011;8263;48.880;9.276;2023-06-04T00:07:05;116.80;;;108.90;;
16308;SDS011;8263;48.880;9.276;2023-06-04T00:09:32;116.55;;;108.72;;
16308;SDS011;8263;48.880;9.276;2023-06-04T00:11:58;113.85;;;106.22;;
16308;SDS011;8263;48.880;9.276;2023-06-04T00:14:26;116.22;;;108.43;;
16308;SDS011;8263;48.880;9.276;2023-06-04T00:16:53;118.68;;;110.75;;
16308;SDS011;8263;48.880;9.276;2023-06-04T00:19:19;116.85;;;108.85;;
16308;SDS011;8263;48.880;9.276;2023-06-04T00:21:46;117.25;;;109.32;;
16308;SDS011;8263;48.880;9.276;2023-06-04T00:24:12;115.53;;;107.43;;
16308;SDS011;8263;48.880;9.276;2023-06-04T00:26:39;115.13;;;107.32;;
16308;SDS011;8263;48.880;9.276;2023-06-04T00:29:05;118.80;;;110.80;;
16308;SDS011;8263;48.880;9.276;2023-06-04T00:31:33;117.57;;;109.68;;
16308;SDS011;8263;48.880;9.276;2023-06-04T00:34:00;118.53;;;110.55;;
16308;SDS011;8263;48.880;9.276;2023-06-04T00:36:27;118.43;;;110.43;;
16308;SDS011;8263;48.880;9.276;2023-06-04T00:38:54;116.88;;;109.05;;
16308;SDS011;8263;48.880;9.276;2023-06-04T00:41:21;119.07;;;111.07;;
16308;SDS011;8263;48.880;9.276;2023-06-04T00:43:47;119.07;;;111.13;;
16308;SDS011;8263;48.880;9.276;2023-06-04T00:46:21;119.55;;;111.38;;
16308;SDS011;8263;48.880;9.276;2023-06-04T00:48:49;118.20;;;110.25;;
16308;SDS011;8263;48.880;9.276;2023-06-04T00:51:15;117.53;;;109.68;;
16308;SDS011;8263;48.880;9.276;2023-06-04T00:53:42;120.10;;;111.30;;
16308;SDS011;8263;48.880;9.276;2023-06-04T00:56:09;118.38;;;110.38;;
16308;SDS011;8263;48.880;9.276;2023-06-04T00:58:37;116.95;;;108.95;;
16308;SDS011;8263;48.880;9.276;2023-06-04T01:01:04;118.35;;;110.40;;
16308;SDS011;8263;48.880;9.276;2023-06-04T01:03:30;118.50;;;110.60;;
16308;SDS011;8263;48.880;9.276;2023-06-04T01:06:02;119.15;;;111.13;;
16308;SDS011;8263;48.880;9.276;2023-06-04T01:08:30;121.25;;;113.05;;
16308;SDS011;8263;48.880;9.276;2023-06-04T01:10:57;120.05;;;111.88;;
16308;SDS011;8263;48.880;9.276;2023-06-04T01:13:24;120.20;;;111.75;;
16308;SDS011;8263;48.880;9.276;2023-06-04T01:15:50;119.55;;;111.45;;
16308;SDS011;8263;48.880;9.276;2023-06-04T01:18:17;119.13;;;110.95;;
16308;SDS011;8263;48.880;9.276;2023-06-04T01:20:52;122.15;;;113.72;;
16308;SDS011;8263;48.880;9.276;2023-06-04T01:23:26;119.40;;;111.30;;
16308;SDS011;8263;48.880;9.276;2023-06-04T01:25:59;120.60;;;112.50;;
16308;SDS011;8263;48.880;9.276;2023-06-04T01:28:27;119.50;;;111.35;;
16308;SDS011;8263;48.880;9.276;2023-06-04T01:30:55;121.65;;;113.43;;
16308;SDS011;8263;48.880;9.276;2023-06-04T01:33:22;120.15;;;111.97;;
16308;SDS011;8263;48.880;9.276;2023-06-04T01:35:49;122.35;;;114.03;;
16308;SDS011;8263;48.880;9.276;2023-06-04T01:38:15;121.25;;;113.03;;
16308;SDS011;8263;48.880;9.276;2023-06-04T01:40:43;121.05;;;112.85;;
16308;SDS011;8263;48.880;9.276;2023-06-04T01:43:10;121.88;;;113.68;;
16308;SDS011;8263;48.880;9.276;2023-06-04T01:45:37;120.10;;;112.00;;
16308;SDS011;8263;48.880;9.276;2023-06-04T01:48:04;120.97;;;112.78;;
16308;SDS011;8263;48.880;9.276;2023-06-04T01:50:31;123.47;;;115.07;;
16308;SDS011;8263;48.880;9.276;2023-06-04T01:52:57;122.35;;;114.15;;
16308;SDS011;8263;48.880;9.276;2023-06-04T01:55:23;119.95;;;111.82;;
16308;SDS011;8263;48.880;9.276;2023-06-04T01:57:53;120.13;;;112.05;;
16308;SDS011;8263;48.880;9.276;2023-06-04T02:00:19;122.38;;;114.03;;
16308;SDS011;8263;48.880;9.276;2023-06-04T02:02:46;123.30;;;114.97;;
16308;SDS011;8263;48.880;9.276;2023-06-04T02:05:14;121.22;;;112.93;;
16308;SDS011;8263;48.880;9.276;2023-06-04T02:07:42;122.85;;;114.32;;
16308;SDS011;8263;48.880;9.276;2023-06-04T02:10:10;123.75;;;115.28;;
16308;SDS011;8263;48.880;9.276;2023-06-04T02:12:37;122.20;;;113.80;;
16308;SDS011;8263;48.880;9.276;2023-06-04T02:15:09;122.43;;;114.13;;
16308;SDS011;8263;48.880;9.276;2023-06-04T02:17:36;123.15;;;114.75;;
16308;SDS011;8263;48.880;9.276;2023-06-04T02:20:08;122.85;;;114.30;;
16308;SDS011;8263;48.880;9.276;2023-06-04T02:22:35;121.35;;;112.95;;
16308;SDS011;8263;48.880;9.276;2023-06-04T02:25:02;122.57;;;114.13;;
16308;SDS011;8263;48.880;9.276;2023-06-04T02:27:28;123.10;;;114.75;;
16308;SDS011;8263;48.880;9.276;2023-06-04T02:29:55;124.25;;;115.63;;
16308;SDS011;8263;48.880;9.276;2023-06-04T02:32:24;122.88;;;114.57;;
16308;SDS011;8263;48.880;9.276;2023-06-04T02:34:50;123.07;;;114.72;;
16308;SDS011;8263;48.880;9.276;2023-06-04T02:37:17;125.47;;;116.93;;
16308;SDS011;8263;48.880;9.276;2023-06-04T02:39:43;124.95;;;116.40;;
16308;SDS011;8263;48.880;9.276;2023-06-04T02:42:10;125.43;;;116.82;;
16308;SDS011;8263;48.880;9.276;2023-06-04T02:44:36;125.82;;;117.28;;
16308;SDS011;8263;48.880;9.276;2023-06-04T02:47:03;124.38;;;115.57;;
16308;SDS011;8263;48.880;9.276;2023-06-04T02:49:31;125.78;;;117.15;;
16308;SDS011;8263;48.880;9.276;2023-06-04T02:51:57;124.90;;;116.45;;
16308;SDS011;8263;48.880;9.276;2023-06-04T02:54:24;126.88;;;118.18;;
16308;SDS011;8263;48.880;9.276;2023-06-04T02:56:51;125.38;;;116.82;;
16308;SDS011;8263;48.880;9.276;2023-06-04T02:59:18;125.13;;;116.63;;
16308;SDS011;8263;48.880;9.276;2023-06-04T03:01:44;123.03;;;114.63;;
16308;SDS011;8263;48.880;9.276;2023-06-04T03:04:11;125.95;;;117.40;;
16308;SDS011;8263;48.880;9.276;2023-06-04T03:06:42;126.22;;;117.55;;
16308;SDS011;8263;48.880;9.276;2023-06-04T03:09:10;126.30;;;117.70;;
16308;SDS011;8263;48.880;9.276;2023-06-04T03:11:36;123.68;;;115.22;;
16308;SDS011;8263;48.880;9.276;2023-06-04T03:14:02;125.45;;;116.75;;
16308;SDS011;8263;48.880;9.276;2023-06-04T03:16:29;124.32;;;115.93;;
16308;SDS011;8263;48.880;9.276;2023-06-04T03:18:58;124.93;;;116.40;;
16308;SDS011;8263;48.880;9.276;2023-06-04T03:21:24;123.50;;;114.80;;
16308;SDS011;8263;48.880;9.276;2023-06-04T03:23:55;125.18;;;116.68;;
16308;SDS011;8263;48.880;9.276;2023-06-04T03:26:22;124.22;;;115.72;;
16308;SDS011;8263;48.880;9.276;2023-06-04T03:28:48;126.45;;;117.75;;
16308;SDS011;8263;48.880;9.276;2023-06-04T03:31:15;125.05;;;116.43;;
16308;SDS011;8263;48.880;9.276;2023-06-04T03:33:42;127.07;;;118.38;;
16308;SDS011;8263;48.880;9.276;2023-06-04T03:36:08;126.20;;;117.32;;
16308;SDS011;8263;48.880;9.276;2023-06-04T03:38:35;126.78;;;118.18;;
16308;SDS011;8263;48.880;9.276;2023-06-04T03:41:03;123.30;;;114.90;;
16308;SDS011;8263;48.880;9.276;2023-06-04T03:43:40;125.97;;;117.30;;
16308;SDS011;8263;48.880;9.276;2023-06-04T03:46:07;126.88;;;118.18;;
16308;SDS011;8263;48.880;9.276;2023-06-04T03:48:38;126.72;;;118.05;;
16308;SDS011;8263;48.880;9.276;2023-06-04T03:51:05;126.85;;;117.80;;
16308;SDS011;8263;48.880;9.276;2023-06-04T03:53:32;126.50;;;117.72;;
16308;SDS011;8263;48.880;9.276;2023-06-04T03:55:58;128.00;;;119.20;;
16308;SDS011;8263;48.880;9.276;2023-06-04T03:58:26;127.50;;;118.80;;
16308;SDS011;8263;48.880;9.276;2023-06-04T04:00:53;126.82;;;118.13;;
16308;SDS011;8263;48.880;9.276;2023-06-04T04:03:20;127.18;;;118.47;;
16308;SDS011;8263;48.880;9.276;2023-06-04T04:05:47;128.23;;;119.40;;
16308;SDS011;8263;48.880;9.276;2023-06-04T04:08:14;128.95;;;119.95;;
16308;SDS011;8263;48.880;9.276;2023-06-04T04:10:41;128.20;;;119.40;;
16308;SDS011;8263;48.880;9.276;2023-06-04T04:13:08;127.22;;;118.45;;
16308;SDS011;8263;48.880;9.276;2023-06-04T04:15:36;128.13;;;119.32;;
16308;SDS011;8263;48.880;9.276;2023-06-04T04:18:02;125.82;;;117.18;;
16308;SDS011;8263;48.880;9.276;2023-06-04T04:20:29;127.30;;;118.60;;
16308;SDS011;8263;48.880;9.276;2023-06-04T04:22:55;128.77;;;119.90;;
16308;SDS011;8263;48.880;9.276;2023-06-04T04:25:22;127.03;;;118.25;;
16308;SDS011;8263;48.880;9.276;2023-06-04T04:27:49;129.05;;;120.05;;
16308;SDS011;8263;48.880;9.276;2023-06-04T04:30:15;127.65;;;118.80;;
16308;SDS011;8263;48.880;9.276;2023-06-04T04:32:44;128.50;;;119.68;;
16308;SDS011;8263;48.880;9.276;2023-06-04T04:35:13;128.43;;;119.57;;
16308;SDS011;8263;48.880;9.276;2023-06-04T04:37:43;127.85;;;119.03;;
16308;SDS011;8263;48.880;9.276;2023-06-04T04:40:10;129.15;;;120.25;;
16308;SDS011;8263;48.880;9.276;2023-06-04T04:42:37;128.85;;;119.95;;
16308;SDS011;8263;48.880;9.276;2023-06-04T04:45:04;127.68;;;118.68;;
16308;SDS011;8263;48.880;9.276;2023-06-04T04:47:31;128.18;;;119.38;;
16308;SDS011;8263;48.880;9.276;2023-06-04T04:50:03;129.63;;;120.60;;
16308;SDS011;8263;48.880;9.276;2023-06-04T04:52:29;128.20;;;119.25;;
16308;SDS011;8263;48.880;9.276;2023-06-04T04:54:56;127.90;;;119.10;;
16308;SDS011;8263;48.880;9.276;2023-06-04T04:57:23;127.88;;;118.97;;
16308;SDS011;8263;48.880;9.276;2023-06-04T04:59:50;129.80;;;120.90;;
16308;SDS011;8263;48.880;9.276;2023-06-04T05:02:16;129.32;;;120.38;;
16308;SDS011;8263;48.880;9.276;2023-06-04T05:04:43;128.23;;;119.40;;
16308;SDS011;8263;48.880;9.276;2023-06-04T05:07:11;128.45;;;119.55;;
16308;SDS011;8263;48.880;9.276;2023-06-04T05:09:37;127.30;;;118.60;;
16308;SDS011;8263;48.880;9.276;2023-06-04T05:12:04;128.32;;;119.43;;
16308;SDS011;8263;48.880;9.276;2023-06-04T05:14:31;128.95;;;120.07;;
16308;SDS011;8263;48.880;9.276;2023-06-04T05:17:00;129.88;;;120.90;;
16308;SDS011;8263;48.880;9.276;2023-06-04T05:19:28;128.80;;;120.00;;
16308;SDS011;8263;48.880;9.276;2023-06-04T05:21:57;129.80;;;120.70;;
16308;SDS011;8263;48.880;9.276;2023-06-04T05:24:25;128.90;;;119.90;;
16308;SDS011;8263;48.880;9.276;2023-06-04T05:26:53;127.50;;;118.70;;
16308;SDS011;8263;48.880;9.276;2023-06-04T05:29:21;128.35;;;119.53;;
16308;SDS011;8263;48.880;9.276;2023-06-04T05:31:47;128.25;;;119.45;;
16308;SDS011;8263;48.880;9.276;2023-06-04T05:34:14;129.00;;;120.10;;
16308;SDS011;8263;48.880;9.276;2023-06-04T05:36:41;129.02;;;120.13;;
16308;SDS011;8263;48.880;9.276;2023-06-04T05:39:08;128.23;;;119.43;;
16308;SDS011;8263;48.880;9.276;2023-06-04T05:41:36;128.43;;;119.63;;
16308;SDS011;8263;48.880;9.276;2023-06-04T05:44:03;129.85;;;120.57;;
16308;SDS011;8263;48.880;9.276;2023-06-04T05:46:30;127.50;;;118.70;;
16308;SDS011;8263;48.880;9.276;2023-06-04T05:48:56;127.20;;;118.50;;
16308;SDS011;8263;48.880;9.276;2023-06-04T05:51:23;126.97;;;118.25;;
16308;SDS011;8263;48.880;9.276;2023-06-04T05:53:49;126.30;;;117.53;;
16308;SDS011;8263;48.880;9.276;2023-06-04T05:56:16;126.70;;;118.07;;
16308;SDS011;8263;48.880;9.276;2023-06-04T05:58:50;129.45;;;120.30;;
16308;SDS011;8263;48.880;9.276;2023-06-04T06:01:17;128.52;;;119.53;;
16308;SDS011;8263;48.880;9.276;2023-06-04T06:03:43;128.25;;;119.50;;
16308;SDS011;8263;48.880;9.276;2023-06-04T06:06:10;127.97;;;119.00;;
16308;SDS011;8263;48.880;9.276;2023-06-04T06:08:38;127.93;;;119.18;;
16308;SDS011;8263;48.880;9.276;2023-06-04T06:11:05;129.20;;;119.90;;
16308;SDS011;8263;48.880;9.276;2023-06-04T06:13:32;127.32;;;118.63;;
16308;SDS011;8263;48.880;9.276;2023-06-04T06:16:00;127.20;;;118.40;;
16308;SDS011;8263;48.880;9.276;2023-06-04T06:18:27;126.10;;;117.32;;
16308;SDS011;8263;48.880;9.276;2023-06-04T06:20:53;126.15;;;117.55;;
16308;SDS011;8263;48.880;9.276;2023-06-04T06:23:21;127.47;;;118.78;;
16308;SDS011;8263;48.880;9.276;2023-06-04T06:25:49;126.65;;;117.97;;
16308;SDS011;8263;48.880;9.276;2023-06-04T06:28:16;126.57;;;117.88;;
16308;SDS011;8263;48.880;9.276;2023-06-04T06:30:43;123.97;;;115.55;;
16308;SDS011;8263;48.880;9.276;2023-06-04T06:33:11;125.78;;;117.20;;
16308;SDS011;8263;48.880;9.276;2023-06-04T06:35:38;126.95;;;118.15;;
16308;SDS011;8263;48.880;9.276;2023-06-04T06:38:05;127.05;;;118.40;;
16308;SDS011;8263;48.880;9.276;2023-06-04T06:40:31;126.07;;;117.47;;
16308;SDS011;8263;48.880;9.276;2023-06-04T06:42:57;124.72;;;116.22;;
16308;SDS011;8263;48.880;9.276;2023-06-04T06:45:24;126.25;;;117.65;;
16308;SDS011;8263;48.880;9.276;2023-06-04T06:47:51;126.53;;;117.93;;
16308;SDS011;8263;48.880;9.276;2023-06-04T06:50:19;126.20;;;117.60;;
16308;SDS011;8263;48.880;9.276;2023-06-04T06:52:45;122.90;;;114.50;;
16308;SDS011;8263;48.880;9.276;2023-06-04T06:55:12;126.28;;;117.68;;
16308;SDS011;8263;48.880;9.276;2023-06-04T06:57:39;123.15;;;114.65;;
16308;SDS011;8263;48.880;9.276;2023-06-04T07:00:06;125.78;;;117.18;;
16308;SDS011;8263;48.880;9.276;2023-06-04T07:02:34;125.90;;;117.38;;
16308;SDS011;8263;48.880;9.276;2023-06-04T07:05:00;126.40;;;117.82;;
16308;SDS011;8263;48.880;9.276;2023-06-04T07:07:28;122.85;;;114.55;;
16308;SDS011;8263;48.880;9.276;2023-06-04T07:09:56;124.38;;;115.97;;
16308;SDS011;8263;48.880;9.276;2023-06-04T07:12:22;124.43;;;116.03;;
16308;SDS011;8263;48.880;9.276;2023-06-04T07:14:49;125.07;;;116.57;;
16308;SDS011;8263;48.880;9.276;2023-06-04T07:17:16;124.30;;;115.85;;
16308;SDS011;8263;48.880;9.276;2023-06-04T07:19:42;122.50;;;114.22;;
16308;SDS011;8263;48.880;9.276;2023-06-04T07:22:09;123.85;;;115.43;;
16308;SDS011;8263;48.880;9.276;2023-06-04T07:24:38;124.50;;;116.10;;
16308;SDS011;8263;48.880;9.276;2023-06-04T07:27:09;123.18;;;114.88;;
16308;SDS011;8263;48.880;9.276;2023-06-04T07:29:36;122.72;;;114.40;;
16308;SDS011;8263;48.880;9.276;2023-06-04T07:32:03;121.57;;;113.22;;
16308;SDS011;8263;48.880;9.276;2023-06-04T07:34:29;123.93;;;115.53;;
16308;SDS011;8263;48.880;9.276;2023-06-04T07:36:56;121.13;;;113.03;;
16308;SDS011;8263;48.880;9.276;2023-06-04T07:39:22;119.50;;;111.50;;
16308;SDS011;8263;48.880;9.276;2023-06-04T07:41:51;118.20;;;110.30;;
16308;SDS011;8263;48.880;9.276;2023-06-04T07:44:18;121.53;;;113.35;;
16308;SDS011;8263;48.880;9.276;2023-06-04T07:46:45;122.28;;;114.07;;
16308;SDS011;8263;48.880;9.276;2023-06-04T07:49:12;120.93;;;112.80;;
16308;SDS011;8263;48.880;9.276;2023-06-04T07:51:38;119.68;;;111.68;;
16308;SDS011;8263;48.880;9.276;2023-06-04T07:54:05;119.35;;;111.28;;
16308;SDS011;8263;48.880;9.276;2023-06-04T07:56:31;116.32;;;108.53;;
16308;SDS011;8263;48.880;9.276;2023-06-04T07:59:00;119.72;;;111.72;;
16308;SDS011;8263;48.880;9.276;2023-06-04T08:01:26;118.97;;;111.03;;
16308;SDS011;8263;48.880;9.276;2023-06-04T08:03:52;118.00;;;110.10;;
16308;SDS011;8263;48.880;9.276;2023-06-04T08:06:19;118.65;;;110.72;;
16308;SDS011;8263;48.880;9.276;2023-06-04T08:08:46;118.95;;;110.95;;
16308;SDS011;8263;48.880;9.276;2023-06-04T08:11:15;118.45;;;110.55;;
16308;SDS011;8263;48.880;9.276;2023-06-04T08:13:41;118.65;;;110.75;;
16308;SDS011;8263;48.880;9.276;2023-06-04T08:16:09;118.65;;;110.32;;
16308;SDS011;8263;48.880;9.276;2023-06-04T08:18:37;118.45;;;110.55;;
16308;SDS011;8263;48.880;9.276;2023-06-04T08:21:04;116.45;;;108.75;;
16308;SDS011;8263;48.880;9.276;2023-06-04T08:23:31;116.68;;;108.93;;
16308;SDS011;8263;48.880;9.276;2023-06-04T08:25:57;116.75;;;108.40;;
16308;SDS011;8263;48.880;9.276;2023-06-04T08:28:23;118.15;;;110.25;;
16308;SDS011;8263;48.880;9.276;2023-06-04T08:30:50;117.05;;;109.25;;
16308;SDS011;8263;48.880;9.276;2023-06-04T08:33:19;115.25;;;107.45;;
16308;SDS011;8263;48.880;9.276;2023-06-04T08:35:45;116.47;;;108.68;;
16308;SDS011;8263;48.880;9.276;2023-06-04T08:38:12;115.28;;;107.50;;
16308;SDS011;8263;48.880;9.276;2023-06-04T08:40:38;115.07;;;107.47;;
16308;SDS011;8263;48.880;9.276;2023-06-04T08:43:05;113.18;;;105.68;;
16308;SDS011;8263;48.880;9.276;2023-06-04T08:45:32;115.70;;;107.90;;
16308;SDS011;8263;48.880;9.276;2023-06-04T08:47:59;116.50;;;108.80;;
16308;SDS011;8263;48.880;9.276;2023-06-04T08:50:27;116.57;;;108.88;;
16308;SDS011;8263;48.880;9.276;2023-06-04T08:52:55;115.57;;;107.97;;
16308;SDS011;8263;48.880;9.276;2023-06-04T08:55:22;113.05;;;105.60;;
16308;SDS011;8263;48.880;9.276;2023-06-04T08:57:49;113.28;;;105.53;;
16308;SDS011;8263;48.880;9.276;2023-06-04T09:00:16;111.65;;;104.35;;
16308;SDS011;8263;48.880;9.276;2023-06-04T09:02:43;113.28;;;105.68;;
16308;SDS011;8263;48.880;9.276;2023-06-04T09:05:10;113.45;;;106.03;;
16308;SDS011;8263;48.880;9.276;2023-06-04T09:07:39;111.32;;;103.60;;
16308;SDS011;8263;48.880;9.276;2023-06-04T09:10:07;109.75;;;102.55;;
16308;SDS011;8263;48.880;9.276;2023-06-04T09:12:36;113.70;;;106.20;;
16308;SDS011;8263;48.880;9.276;2023-06-04T09:15:03;110.18;;;102.93;;
16308;SDS011;8263;48.880;9.276;2023-06-04T09:17:30;109.43;;;102.22;;
16308;SDS011;8263;48.880;9.276;2023-06-04T09:19:56;108.80;;;101.70;;
16308;SDS011;8263;48.880;9.276;2023-06-04T09:22:31;109.38;;;102.15;;
16308;SDS011;8263;48.880;9.276;2023-06-04T09:24:59;107.47;;;100.47;;
16308;SDS011;8263;48.880;9.276;2023-06-04T09:27:26;111.45;;;104.15;;
16308;SDS011;8263;48.880;9.276;2023-06-04T09:29:54;109.43;;;102.30;;
16308;SDS011;8263;48.880;9.276;2023-06-04T09:32:21;108.22;;;101.15;;
16308;SDS011;8263;48.880;9.276;2023-06-04T09:34:48;110.32;;;103.00;;
16308;SDS011;8263;48.880;9.276;2023-06-04T09:37:15;107.47;;;100.47;;
16308;SDS011;8263;48.880;9.276;2023-06-04T09:39:42;108.43;;;100.70;;
16308;SDS011;8263;48.880;9.276;2023-06-04T09:42:10;107.68;;;100.68;;
16308;SDS011;8263;48.880;9.276;2023-06-04T09:44:42;106.05;;;99.03;;
16308;SDS011;8263;48.880;9.276;2023-06-04T09:47:10;105.03;;;98.13;;
16308;SDS011;8263;48.880;9.276;2023-06-04T09:49:40;105.45;;;98.63;;
16308;SDS011;8263;48.880;9.276;2023-06-04T09:52:06;105.00;;;98.20;;
16308;SDS011;8263;48.880;9.276;2023-06-04T09:54:35;105.60;;;98.57;;
16308;SDS011;8263;48.880;9.276;2023-06-04T09:57:01;104.45;;;97.65;;
16308;SDS011;8263;48.880;9.276;2023-06-04T09:59:31;102.70;;;96.00;;
16308;SDS011;8263;48.880;9.276;2023-06-04T10:01:58;103.25;;;96.55;;
16308;SDS011;8263;48.880;9.276;2023-06-04T10:04:25;101.22;;;94.72;;
16308;SDS011;8263;48.880;9.276;2023-06-04T10:06:55;101.63;;;95.05;;
16308;SDS011;8263;48.880;9.276;2023-06-04T10:09:22;101.00;;;94.43;;
16308;SDS011;8263;48.880;9.276;2023-06-04T10:11:51;101.40;;;94.80;;
16308;SDS011;8263;48.880;9.276;2023-06-04T10:14:19;101.97;;;95.28;;
16308;SDS011;8263;48.880;9.276;2023-06-04T10:16:49;100.15;;;93.50;;
16308;SDS011;8263;48.880;9.276;2023-06-04T10:19:16;97.38;;;91.07;;
16308;SDS011;8263;48.880;9.276;2023-06-04T10:21:42;99.97;;;93.57;;
16308;SDS011;8263;48.880;9.276;2023-06-04T10:24:09;98.95;;;92.55;;
16308;SDS011;8263;48.880;9.276;2023-06-04T10:26:36;100.75;;;94.25;;
16308;SDS011;8263;48.880;9.276;2023-06-04T10:29:03;98.40;;;92.10;;
16308;SDS011;8263;48.880;9.276;2023-06-04T10:31:31;99.50;;;93.07;;
16308;SDS011;8263;48.880;9.276;2023-06-04T10:33:59;99.68;;;93.28;;
16308;SDS011;8263;48.880;9.276;2023-06-04T10:36:26;95.65;;;89.45;;
16308;SDS011;8263;48.880;9.276;2023-06-04T10:38:54;98.00;;;91.70;;
16308;SDS011;8263;48.880;9.276;2023-06-04T10:41:21;94.90;;;88.80;;
16308;SDS011;8263;48.880;9.276;2023-06-04T10:43:49;97.40;;;91.10;;
16308;SDS011;8263;48.880;9.276;2023-06-04T10:46:16;96.80;;;90.43;;
16308;SDS011;8263;48.880;9.276;2023-06-04T10:48:49;96.38;;;90.18;;
16308;SDS011;8263;48.880;9.276;2023-06-04T10:51:28;96.88;;;90.53;;
16308;SDS011;8263;48.880;9.276;2023-06-04T10:53:55;91.85;;;85.95;;
16308;SDS011;8263;48.880;9.276;2023-06-04T10:56:24;95.53;;;89.32;;
16308;SDS011;8263;48.880;9.276;2023-06-04T10:58:51;93.57;;;87.50;;
16308;SDS011;8263;48.880;9.276;2023-06-04T11:01:22;96.25;;;90.05;;
16308;SDS011;8263;48.880;9.276;2023-06-04T11:03:49;93.97;;;87.97;;
16308;SDS011;8263;48.880;9.276;2023-06-04T11:06:18;94.13;;;88.03;;
16308;SDS011;8263;48.880;9.276;2023-06-04T11:08:46;94.55;;;88.47;;
16308;SDS011;8263;48.880;9.276;2023-06-04T11:11:13;93.30;;;87.38;;
16308;SDS011;8263;48.880;9.276;2023-06-04T11:13:39;94.68;;;88.40;;
16308;SDS011;8263;48.880;9.276;2023-06-04T11:16:14;93.60;;;87.60;;
16308;SDS011;8263;48.880;9.276;2023-06-04T11:18:40;93.72;;;87.68;;
16308;SDS011;8263;48.880;9.276;2023-06-04T11:21:07;90.22;;;84.43;;
16308;SDS011;8263;48.880;9.276;2023-06-04T11:23:38;93.63;;;87.63;;
16308;SDS011;8263;48.880;9.276;2023-06-04T11:26:04;91.20;;;85.40;;
16308;SDS011;8263;48.880;9.276;2023-06-04T11:28:32;91.07;;;85.28;;
16308;SDS011;8263;48.880;9.276;2023-06-04T11:30:59;92.50;;;86.60;;
16308;SDS011;8263;48.880;9.276;2023-06-04T11:33:27;91.43;;;85.55;;
16308;SDS011;8263;48.880;9.276;2023-06-04T11:35:54;90.85;;;84.75;;
16308;SDS011;8263;48.880;9.276;2023-06-04T11:38:21;89.78;;;84.00;;
16308;SDS011;8263;48.880;9.276;2023-06-04T11:40:55;91.80;;;85.80;;
16308;SDS011;8263;48.880;9.276;2023-06-04T11:43:22;90.25;;;84.45;;
16308;SDS011;8263;48.880;9.276;2023-06-04T11:45:49;86.65;;;81.05;;
16308;SDS011;8263;48.880;9.276;2023-06-04T11:48:16;88.40;;;82.78;;
16308;SDS011;8263;48.880;9.276;2023-06-04T11:50:42;88.93;;;83.22;;
16308;SDS011;8263;48.880;9.276;2023-06-04T11:53:10;87.68;;;82.07;;
16308;SDS011;8263;48.880;9.276;2023-06-04T11:55:37;89.63;;;83.93;;
16308;SDS011;8263;48.880;9.276;2023-06-04T11:58:07;85.85;;;80.40;;
16308;SDS011;8263;48.880;9.276;2023-06-04T12:00:34;86.32;;;80.82;;
16308;SDS011;8263;48.880;9.276;2023-06-04T12:03:01;87.35;;;81.78;;
16308;SDS011;8263;48.880;9.276;2023-06-04T12:05:28;86.22;;;80.72;;
16308;SDS011;8263;48.880;9.276;2023-06-04T12:08:03;85.93;;;80.50;;
16308;SDS011;8263;48.880;9.276;2023-06-04T12:10:36;86.90;;;81.40;;
16308;SDS011;8263;48.880;9.276;2023-06-04T12:13:02;82.47;;;77.18;;
16308;SDS011;8263;48.880;9.276;2023-06-04T12:15:30;83.82;;;78.53;;
16308;SDS011;8263;48.880;9.276;2023-06-04T12:17:57;85.90;;;80.35;;
16308;SDS011;8263;48.880;9.276;2023-06-04T12:20:33;82.57;;;77.28;;
16308;SDS011;8263;48.880;9.276;2023-06-04T12:23:01;82.28;;;77.05;;
16308;SDS011;8263;48.880;9.276;2023-06-04T12:25:28;85.72;;;80.22;;
16308;SDS011;8263;48.880;9.276;2023-06-04T12:27:55;83.85;;;78.55;;
16308;SDS011;8263;48.880;9.276;2023-06-04T12:30:21;80.50;;;75.38;;
16308;SDS011;8263;48.880;9.276;2023-06-04T12:32:50;83.03;;;77.72;;
16308;SDS011;8263;48.880;9.276;2023-06-04T12:35:17;84.55;;;79.15;;
16308;SDS011;8263;48.880;9.276;2023-06-04T12:37:47;80.30;;;75.20;;
16308;SDS011;8263;48.880;9.276;2023-06-04T12:40:14;81.07;;;75.85;;
16308;SDS011;8263;48.880;9.276;2023-06-04T12:42:40;82.63;;;77.35;;
16308;SDS011;8263;48.880;9.276;2023-06-04T12:45:08;81.28;;;76.00;;
16308;SDS011;8263;48.880;9.276;2023-06-04T12:47:35;79.28;;;74.07;;
16308;SDS011;8263;48.880;9.276;2023-06-04T12:50:03;82.72;;;77.32;;
16308;SDS011;8263;48.880;9.276;2023-06-04T12:52:30;80.28;;;75.18;;
16308;SDS011;8263;48.880;9.276;2023-06-04T12:54:57;80.88;;;75.68;;
16308;SDS011;8263;48.880;9.276;2023-06-04T12:57:23;80.03;;;74.93;;
16308;SDS011;8263;48.880;9.276;2023-06-04T12:59:51;81.53;;;76.05;;
16308;SDS011;8263;48.880;9.276;2023-06-04T13:02:18;78.85;;;73.50;;
16308;SDS011;8263;48.880;9.276;2023-06-04T13:04:44;79.28;;;74.13;;
16308;SDS011;8263;48.880;9.276;2023-06-04T13:07:12;78.38;;;73.35;;
16308;SDS011;8263;48.880;9.276;2023-06-04T13:09:39;77.90;;;72.88;;
16308;SDS011;8263;48.880;9.276;2023-06-04T13:12:06;78.50;;;73.50;;
16308;SDS011;8263;48.880;9.276;2023-06-04T13:14:34;79.65;;;74.55;;
16308;SDS011;8263;48.880;9.276;2023-06-04T13:17:01;79.05;;;74.05;;
16308;SDS011;8263;48.880;9.276;2023-06-04T13:19:27;80.47;;;75.20;;
16308;SDS011;8263;48.880;9.276;2023-06-04T13:21:54;78.93;;;73.93;;
16308;SDS011;8263;48.880;9.276;2023-06-04T13:24:23;78.10;;;73.07;;
16308;SDS011;8263;48.880;9.276;2023-06-04T13:26:50;78.85;;;73.85;;
16308;SDS011;8263;48.880;9.276;2023-06-04T13:29:17;79.75;;;74.45;;
16308;SDS011;8263;48.880;9.276;2023-06-04T13:31:47;76.50;;;71.60;;
16308;SDS011;8263;48.880;9.276;2023-06-04T13:34:13;74.30;;;69.60;;
16308;SDS011;8263;48.880;9.276;2023-06-04T13:36:40;76.55;;;71.65;;
16308;SDS011;8263;48.880;9.276;2023-06-04T13:39:06;77.82;;;72.82;;
16308;SDS011;8263;48.880;9.276;2023-06-04T13:41:34;76.35;;;71.35;;
16308;SDS011;8263;48.880;9.276;2023-06-04T13:44:01;77.30;;;72.40;;
16308;SDS011;8263;48.880;9.276;2023-06-04T13:46:27;75.30;;;70.45;;
16308;SDS011;8263;48.880;9.276;2023-06-04T13:48:54;76.28;;;71.43;;
16308;SDS011;8263;48.880;9.276;2023-06-04T13:51:20;76.88;;;71.97;;
16308;SDS011;8263;48.880;9.276;2023-06-04T13:53:47;74.60;;;69.80;;
16308;SDS011;8263;48.880;9.276;2023-06-04T13:56:13;75.65;;;70.85;;
16308;SDS011;8263;48.880;9.276;2023-06-04T13:58:41;75.63;;;70.53;;
16308;SDS011;8263;48.880;9.276;2023-06-04T14:01:08;70.88;;;66.38;;
16308;SDS011;8263;48.880;9.276;2023-06-04T14:03:35;74.15;;;69.40;;
16308;SDS011;8263;48.880;9.276;2023-06-04T14:06:02;75.20;;;70.40;;
16308;SDS011;8263;48.880;9.276;2023-06-04T14:08:28;75.07;;;70.28;;
16308;SDS011;8263;48.880;9.276;2023-06-04T14:10:55;74.70;;;69.97;;
16308;SDS011;8263;48.880;9.276;2023-06-04T14:13:22;74.10;;;69.28;;
16308;SDS011;8263;48.880;9.276;2023-06-04T14:15:51;75.13;;;70.32;;
16308;SDS011;8263;48.880;9.276;2023-06-04T14:18:17;79.53;;;74.18;;